Time;durP1;ratioP1;P1;durP2;ratioP2;P2;SDS_P1;SDS_P2;PMS_P1;PMS_P2;Temp;Humidity;BMP_temperature;BMP_pressure;BME280_temperature;BME280_humidity;BME280_pressure;Samples;Min_cycle;Max_cycle;Signal;HPM_P1;HPM_P2
2023/05/21 08:44:46;;;;;;;4.50;1.90;;;;;;;27.11;32.66;101118.98;106379;1253;63819;-86
2023/05/21 08:47:35;;;;;;;4.20;1.50;;;;;;;27.20;31.30;101118.00;106393;1254;60539;-82
2023/05/21 08:50:25;;;;;;;2.30;1.50;;;;;;;27.08;30.97;101116.10;106367;1256;60873;-82
2023/05/21 08:53:14;;;;;;;2.80;1.50;;;;;;;26.92;30.46;101117.05;106289;1253;65317;-86
2023/05/21 08:56:16;;;;;;;2.80;1.80;;;;;;;26.80;31.65;101112.12;106343;1257;61115;-82
2023/05/21 08:59:16;;;;;;;3.10;2.00;;;;;;;26.99;31.98;101105.55;106114;1252;241494;-86
2023/05/21 09:02:04;;;;;;;6.50;1.80;;;;;;;27.29;31.31;101106.13;106325;1252;60488;-86
2023/05/21 09:04:57;;;;;;;4.60;2.00;;;;;;;27.54;31.21;101106.02;106477;1253;60379;-85
2023/05/21 09:08:01;;;;;;;4.80;1.80;;;;;;;27.72;30.45;101106.48;106100;1254;66092;-86
2023/05/21 09:11:10;;;;;;;4.70;1.60;;;;;;;27.77;30.77;101099.84;106506;1253;60919;-82
2023/05/21 09:14:03;;;;;;;4.50;1.40;;;;;;;27.89;30.42;101102.23;106470;1253;63887;-82
2023/05/21 09:17:00;;;;;;;3.80;1.50;;;;;;;27.83;29.79;101101.98;106331;1254;60924;-86
2023/05/21 09:20:09;;;;;;;2.50;1.50;;;;;;;27.79;29.36;101103.30;106419;1254;60466;-83
2023/05/21 09:22:58;;;;;;;2.80;1.90;;;;;;;27.73;29.57;101104.83;106404;1254;66022;-87
2023/05/21 09:25:47;;;;;;;2.60;1.40;;;;;;;27.81;29.63;101103.19;106227;1254;61192;-86
2023/05/21 09:28:42;;;;;;;6.20;1.60;;;;;;;27.91;29.01;101102.66;106381;1253;65022;-86
2023/05/21 09:31:31;;;;;;;3.00;1.60;;;;;;;27.76;29.53;101095.80;106486;1256;60332;-83
2023/05/21 09:34:23;;;;;;;4.60;1.70;;;;;;;27.80;30.09;101091.63;106532;1253;60530;-83
2023/05/21 09:37:12;;;;;;;2.40;1.70;;;;;;;27.92;29.37;101090.88;106150;1254;66488;-86
2023/05/21 09:40:19;;;;;;;3.50;1.60;;;;;;;27.82;29.29;101089.39;106343;1253;60823;-84
2023/05/21 09:43:07;;;;;;;;;;;;;;;27.73;29.22;101090.63;106400;1254;66611;-87
2023/05/21 09:45:55;;;;;;;3.30;1.90;;;;;;;27.72;28.34;101087.64;106408;1253;60351;-83
2023/05/21 09:48:47;;;;;;;;;;;;;;;27.64;28.89;101087.36;106356;1254;60466;-83
2023/05/21 09:51:37;;;;;;;2.40;1.40;;;;;;;27.71;29.42;101084.50;106367;1256;66154;-87
2023/05/21 09:54:25;;;;;;;4.00;1.80;;;;;;;27.87;28.53;101086.65;106550;1256;60100;-83
2023/05/21 09:57:13;;;;;;;4.30;1.40;;;;;;;27.93;28.28;101084.55;106350;1254;63749;-81
2023/05/21 10:00:01;;;;;;;3.20;1.70;;;;;;;28.02;29.13;101080.17;106433;1254;60472;-82
2023/05/21 10:03:01;;;;;;;5.20;1.90;;;;;;;28.18;29.14;101077.63;106297;1254;60439;-82
2023/05/21 10:05:50;;;;;;;3.80;1.50;;;;;;;28.23;28.19;101074.55;106412;1252;65905;-81
2023/05/21 10:08:41;;;;;;;2.80;1.70;;;;;;;28.19;28.44;101078.11;106413;1253;60942;-86
2023/05/21 10:11:30;;;;;;;5.50;1.90;;;;;;;28.16;27.87;101079.70;106241;1253;63860;-86
2023/05/21 10:14:22;;;;;;;4.30;1.80;;;;;;;28.15;27.85;101073.90;106439;1253;60425;-86
2023/05/21 10:17:10;;;;;;;4.70;1.90;;;;;;;28.20;28.37;101074.34;106341;1253;60414;-85
2023/05/21 10:20:00;;;;;;;4.10;1.60;;;;;;;28.37;28.22;101072.27;106451;1256;65913;-81
2023/05/21 10:22:48;;;;;;;4.00;1.90;;;;;;;28.53;28.48;101071.73;106622;1254;60773;-86
2023/05/21 10:25:36;;;;;;;2.60;1.60;;;;;;;28.63;27.82;101070.71;106445;1253;65614;-86
2023/05/21 10:28:24;;;;;;;3.50;1.60;;;;;;;28.65;26.27;101072.80;106585;1256;60555;-86
2023/05/21 10:31:12;;;;;;;2.20;1.50;;;;;;;28.41;26.39;101072.31;106384;1254;60466;-86
2023/05/21 10:34:00;;;;;;;3.70;1.80;;;;;;;28.24;26.32;101067.01;106397;1254;65657;-86
2023/05/21 10:36:48;;;;;;;3.10;1.80;;;;;;;28.18;27.58;101062.54;106551;1257;60652;-81
2023/05/21 10:39:36;;;;;;;2.80;1.70;;;;;;;28.38;26.98;101059.94;106130;1254;64972;-81
2023/05/21 10:42:30;;;;;;;2.80;1.70;;;;;;;28.56;27.29;101062.60;106443;1254;60491;-81
2023/05/21 10:45:31;;;;;;;2.40;1.80;;;;;;;28.99;26.84;101061.35;106351;1253;60293;-82
2023/05/21 10:48:31;;;;;;;4.60;1.60;;;;;;;29.13;25.61;101063.48;106356;1254;66081;-82
2023/05/21 10:51:26;;;;;;;3.00;1.50;;;;;;;29.15;25.61;101062.70;106426;1251;60214;-82
2023/05/21 10:55:09;;;;;;;2.80;1.40;;;;;;;29.00;25.32;101050.75;106459;1254;64029;-82
2023/05/21 10:58:04;;;;;;;2.40;1.60;;;;;;;28.90;25.66;101047.30;105912;1260;60530;-82
2023/05/21 11:00:51;;;;;;;4.50;1.60;;;;;;;29.02;26.54;101048.05;106447;1254;60332;-85
2023/05/21 11:03:40;;;;;;;3.10;1.50;;;;;;;29.19;26.52;101050.02;106520;1254;65978;-86
2023/05/21 11:06:29;;;;;;;4.60;1.60;;;;;;;29.36;25.95;101048.02;106567;1252;60700;-87
2023/05/21 11:09:17;;;;;;;4.30;1.80;;;;;;;29.57;24.77;101041.28;106514;1252;63842;-81
2023/05/21 11:12:06;;;;;;;5.60;1.60;;;;;;;29.76;25.03;101040.42;106482;1254;60432;-85
2023/05/21 11:14:56;;;;;;;2.60;1.20;;;;;;;29.88;24.58;101033.70;106368;1253;60399;-85
2023/05/21 11:17:46;;;;;;;3.20;1.70;;;;;;;30.00;24.93;101029.88;106513;1253;65985;-85
2023/05/21 11:20:35;;;;;;;3.80;1.20;;;;;;;30.20;25.00;101023.96;106440;1254;60890;-82
2023/05/21 11:23:23;;;;;;;1.60;1.20;;;;;;;30.44;25.08;101025.61;106544;1256;63628;-82
2023/05/21 11:26:11;;;;;;;2.60;1.70;;;;;;;30.68;24.70;101022.70;106368;1256;61370;-82
2023/05/21 11:29:02;;;;;;;4.60;1.60;;;;;;;30.95;23.94;101016.17;106446;1252;60428;-86
2023/05/21 11:32:01;;;;;;;4.40;1.60;;;;;;;31.19;23.34;101017.42;106430;1254;65888;-87
2023/05/21 11:34:49;;;;;;;2.20;1.40;;;;;;;31.43;23.54;101018.33;106328;1254;60734;-86
2023/05/21 11:37:39;;;;;;;1.80;1.40;;;;;;;31.73;24.04;101017.64;106695;1252;64010;-87
2023/05/21 11:40:29;;;;;;;2.60;1.30;;;;;;;32.00;22.94;101017.59;106387;1254;60432;-86
2023/05/21 11:43:17;;;;;;;2.80;1.60;;;;;;;32.23;21.84;101015.42;106379;1254;60519;-82
2023/05/21 11:46:05;;;;;;;5.00;1.80;;;;;;;32.45;21.26;101007.10;106365;1254;66714;-86
2023/05/21 11:48:53;;;;;;;2.10;1.40;;;;;;;32.59;21.39;101011.60;106291;1254;60568;-86
2023/05/21 11:51:41;;;;;;;6.10;1.50;;;;;;;32.60;22.02;101013.06;106396;1254;65047;-82
2023/05/21 11:54:35;;;;;;;1.80;1.20;;;;;;;32.56;21.03;101006.05;106383;1254;60440;-87
2023/05/21 11:57:27;;;;;;;3.50;1.40;;;;;;;32.44;20.83;101002.58;106347;1253;60296;-81
2023/05/21 12:00:15;;;;;;;3.90;1.40;;;;;;;32.29;20.75;101001.40;106529;1254;66026;-86
2023/05/21 12:03:05;;;;;;;3.30;1.60;;;;;;;32.15;21.47;101000.52;106348;1256;60522;-86
2023/05/21 12:05:53;;;;;;;1.90;1.40;;;;;;;31.96;21.77;100992.98;106316;1256;64822;-87
2023/05/21 12:08:42;;;;;;;3.90;1.50;;;;;;;31.76;21.95;100989.45;106344;1256;60477;-86
2023/05/21 12:11:30;;;;;;;4.40;1.60;;;;;;;31.47;22.31;100990.64;106449;1254;60345;-82
2023/05/21 12:14:17;;;;;;;4.70;1.20;;;;;;;31.23;22.27;100988.45;106165;1259;64999;-87
2023/05/21 12:17:06;;;;;;;3.50;1.60;;;;;;;31.14;22.39;100989.29;106285;1253;60787;-82
2023/05/21 12:19:57;;;;;;;4.90;1.50;;;;;;;31.10;22.73;100987.61;106381;1254;65229;-82
2023/05/21 12:22:47;;;;;;;4.80;1.70;;;;;;;31.01;22.35;100984.08;106342;1254;61112;-82
2023/05/21 12:25:35;;;;;;;2.70;1.50;;;;;;;31.01;22.54;100983.28;106349;1254;61003;-86
2023/05/21 12:28:23;;;;;;;5.50;1.20;;;;;;;30.99;22.10;100976.77;106306;1257;65160;-87
2023/05/21 12:31:15;;;;;;;3.40;1.30;;;;;;;31.10;22.64;100975.19;106380;1254;60811;-86
2023/05/21 12:34:03;;;;;;;4.00;1.60;;;;;;;31.35;23.04;100974.70;106398;1256;64844;-81
2023/05/21 12:36:51;;;;;;;3.40;1.10;;;;;;;31.74;22.32;100970.83;106377;1256;60396;-86
2023/05/21 12:39:43;;;;;;;3.80;1.50;;;;;;;32.19;21.30;100972.38;106483;1252;60529;-85
2023/05/21 12:42:34;;;;;;;4.30;1.50;;;;;;;32.57;20.55;100967.64;106498;1256;66262;-85
2023/05/21 12:45:22;;;;;;;1.90;1.30;;;;;;;32.77;20.07;100962.77;106423;1256;61163;-82
2023/05/21 12:48:11;;;;;;;2.00;1.20;;;;;;;32.87;20.81;100960.57;106512;1254;64233;-82
2023/05/21 12:50:59;;;;;;;3.50;1.40;;;;;;;33.07;20.74;100962.30;106420;1253;60473;-82
2023/05/21 12:53:47;;;;;;;6.60;1.60;;;;;;;33.33;20.32;100960.21;106330;1254;60520;-85
2023/05/21 12:56:43;;;;;;;2.00;1.20;;;;;;;33.50;20.06;100955.48;106412;1256;66000;-82
2023/05/21 12:59:46;;;;;;;5.40;1.40;;;;;;;33.70;19.95;100954.78;106369;1253;59917;-82
2023/05/21 13:02:41;;;;;;;2.40;1.50;;;;;;;33.98;19.51;100951.48;106494;1254;65042;-82
2023/05/21 13:05:31;;;;;;;3.20;1.30;;;;;;;34.31;19.04;100950.38;106564;1253;61015;-82
2023/05/21 13:08:19;;;;;;;5.00;1.60;;;;;;;34.38;18.37;100951.40;106480;1254;60533;-87
2023/05/21 13:11:07;;;;;;;4.10;1.50;;;;;;;33.95;18.54;100943.42;106638;1256;66161;-86
2023/05/21 13:13:55;;;;;;;2.50;1.20;;;;;;;34.01;18.85;100940.17;106444;1254;60964;-82
2023/05/21 13:16:43;;;;;;;3.00;1.70;;;;;;;34.16;18.64;100931.28;106462;1254;64815;-87
2023/05/21 13:19:31;;;;;;;2.20;1.50;;;;;;;34.12;18.25;100935.55;106138;1259;60427;-86
2023/05/21 13:22:19;;;;;;;2.50;1.40;;;;;;;34.04;17.74;100935.09;106379;1253;59211;-87
2023/05/21 13:25:08;;;;;;;2.00;1.30;;;;;;;34.05;17.70;100938.40;106505;1254;64725;-83
2023/05/21 13:28:00;;;;;;;2.30;0.90;;;;;;;34.17;18.25;100931.34;106337;1256;69567;-86
2023/05/21 13:30:47;;;;;;;1.70;1.30;;;;;;;34.27;18.04;100931.17;106440;1254;63587;-83
2023/05/21 13:33:36;;;;;;;3.10;1.50;;;;;;;34.29;17.66;100931.47;106668;1254;60699;-83
2023/05/21 13:36:24;;;;;;;1.60;1.30;;;;;;;34.29;17.88;100929.35;106438;1253;60432;-83
2023/05/21 13:39:12;;;;;;;3.90;1.20;;;;;;;34.30;18.09;100929.66;106327;1254;65140;-87
2023/05/21 13:42:00;;;;;;;6.00;1.80;;;;;;;34.43;17.71;100927.25;106532;1252;60997;-87
2023/05/21 13:44:49;;;;;;;2.10;1.10;;;;;;;34.58;17.59;100924.56;106499;1253;65031;-86
2023/05/21 13:47:37;;;;;;;4.40;1.40;;;;;;;34.49;18.04;100924.15;106423;1254;60540;-87
2023/05/21 13:50:28;;;;;;;3.30;2.10;;;;;;;34.52;18.05;100927.23;106396;1256;60435;-85
2023/05/21 13:53:16;;;;;;;2.20;1.40;;;;;;;34.48;17.65;100923.42;106489;1256;66180;-85
2023/05/21 13:56:04;;;;;;;4.00;1.50;;;;;;;34.38;18.11;100922.31;106396;1256;60439;-86
2023/05/21 13:58:52;;;;;;;2.70;1.80;;;;;;;34.31;18.09;100922.34;106608;1256;65044;-83
2023/05/21 14:01:40;;;;;;;3.10;1.50;;;;;;;34.30;18.24;100921.07;106611;1254;60536;-86
2023/05/21 14:04:28;;;;;;;3.00;1.30;;;;;;;34.38;18.37;100919.71;106479;1256;60298;-86
2023/05/21 14:07:16;;;;;;;2.30;1.50;;;;;;;34.23;18.30;100916.00;106343;1254;64955;-86
2023/05/21 14:10:05;;;;;;;6.70;1.70;;;;;;;34.19;18.73;100911.77;106575;1254;61654;-82
2023/05/21 14:12:53;;;;;;;4.90;1.90;;;;;;;34.12;18.70;100909.24;106503;1254;65849;-86
2023/05/21 14:15:51;;;;;;;4.50;1.30;;;;;;;34.32;18.24;100907.42;106330;1254;60475;-86
2023/05/21 14:18:40;;;;;;;2.40;1.50;;;;;;;34.41;18.00;100907.17;106346;1254;60357;-82
2023/05/21 14:21:28;;;;;;;2.20;1.50;;;;;;;34.24;18.31;100904.40;106378;1255;66251;-87
2023/05/21 14:24:16;;;;;;;2.90;1.10;;;;;;;34.16;18.40;100903.48;106447;1256;61176;-82
2023/05/21 14:27:04;;;;;;;1.90;1.40;;;;;;;34.16;18.98;100905.27;106329;1254;63744;-86
2023/05/21 14:29:53;;;;;;;2.00;1.30;;;;;;;33.99;18.85;100906.98;106382;1253;60328;-84
2023/05/21 14:32:41;;;;;;;1.60;0.90;;;;;;;33.69;18.95;100908.58;106372;1254;60283;-83
2023/05/21 14:35:29;;;;;;;4.10;2.10;;;;;;;33.17;19.56;100906.52;106407;1252;66162;-82
2023/05/21 14:38:17;;;;;;;2.70;1.10;;;;;;;32.64;19.97;100908.81;106428;1254;60950;-88
2023/05/21 14:41:06;;;;;;;2.30;1.40;;;;;;;32.14;20.49;100905.08;106300;1257;64089;-87
2023/05/21 14:43:54;;;;;;;2.90;1.70;;;;;;;31.68;20.76;100907.66;106407;1254;60328;-87
2023/05/21 14:46:42;;;;;;;2.70;1.30;;;;;;;31.26;20.66;100899.80;106336;1254;61350;-83
2023/05/21 14:49:30;;;;;;;4.40;1.10;;;;;;;31.08;21.11;100900.20;106498;1253;66212;-87
2023/05/21 14:52:18;;;;;;;5.00;1.30;;;;;;;30.74;21.25;100896.44;106426;1256;60345;-83
2023/05/21 14:55:06;;;;;;;2.30;1.30;;;;;;;30.38;21.40;100895.53;106390;1256;64951;-87
2023/05/21 14:57:55;;;;;;;4.30;1.20;;;;;;;30.08;21.96;100889.57;106544;1253;60485;-83
2023/05/21 15:00:43;;;;;;;1.70;1.20;;;;;;;29.85;22.65;100888.20;106359;1253;60491;-82
2023/05/21 15:03:31;;;;;;;4.60;1.60;;;;;;;29.65;22.98;100887.11;106367;1254;66133;-87
2023/05/21 15:06:19;;;;;;;1.70;1.20;;;;;;;29.41;23.43;100883.10;106386;1259;60803;-86
2023/05/21 15:09:07;;;;;;;2.60;1.50;;;;;;;29.16;23.53;100887.36;106445;1254;64931;-87
2023/05/21 15:11:56;;;;;;;3.30;1.60;;;;;;;29.03;23.97;100887.85;106466;1254;60361;-82
2023/05/21 15:14:44;;;;;;;6.70;2.60;;;;;;;28.89;24.06;100888.34;106422;1254;60456;-83
2023/05/21 15:17:33;;;;;;;10.20;3.70;;;;;;;28.66;24.74;100886.30;106319;1254;65132;-82
2023/05/21 15:20:21;;;;;;;2.00;1.20;;;;;;;28.44;24.09;100887.27;106371;1254;60788;-87
2023/05/21 15:23:09;;;;;;;2.30;1.40;;;;;;;28.30;24.20;100886.66;106383;1256;65076;-82
2023/05/21 15:26:05;;;;;;;2.50;1.40;;;;;;;28.12;24.90;100889.16;106402;1254;60469;-82
2023/05/21 15:28:53;;;;;;;4.60;1.30;;;;;;;27.97;25.26;100892.90;106383;1254;60402;-88
2023/05/21 15:31:41;;;;;;;4.20;1.50;;;;;;;27.79;25.55;100894.88;106371;1256;65552;-87
2023/05/21 15:34:32;;;;;;;1.90;1.50;;;;;;;27.56;25.90;100895.05;106579;1254;61096;-82
2023/05/21 15:37:20;;;;;;;2.30;1.20;;;;;;;27.38;25.82;100894.61;106380;1257;63954;-87
2023/05/21 15:40:09;;;;;;;1.80;1.10;;;;;;;27.22;25.96;100894.52;106512;1252;60338;-87
2023/05/21 15:42:57;;;;;;;2.60;1.30;;;;;;;27.13;25.78;100896.14;106794;1253;60475;-82
2023/05/21 15:45:45;;;;;;;1.90;1.20;;;;;;;27.02;25.84;100891.34;106370;1256;66194;-82
2023/05/21 15:48:33;;;;;;;1.90;1.40;;;;;;;26.92;26.14;100892.98;106347;1252;60733;-87
2023/05/21 15:51:22;;;;;;;2.90;1.10;;;;;;;26.82;26.70;100891.33;106333;1254;64741;-82
2023/05/21 15:54:10;;;;;;;3.80;1.30;;;;;;;26.71;26.82;100893.49;106281;1254;61004;-87
2023/05/21 15:56:58;;;;;;;2.60;1.00;;;;;;;26.60;26.96;100891.41;106475;1256;60415;-86
2023/05/21 15:59:46;;;;;;;2.70;1.20;;;;;;;26.49;27.22;100894.52;106491;1256;66083;-82
2023/05/21 16:02:35;;;;;;;5.30;1.50;;;;;;;26.44;27.50;100896.43;106865;1256;61000;-86
2023/05/21 16:05:24;;;;;;;1.70;1.40;;;;;;;26.35;28.06;100895.17;106562;1256;64051;-82
2023/05/21 16:08:12;;;;;;;2.20;1.30;;;;;;;26.24;28.26;100898.67;106422;1254;60489;-87
2023/05/21 16:11:00;;;;;;;6.60;1.30;;;;;;;26.02;28.62;100900.64;106698;1256;60345;-87
2023/05/21 16:13:48;;;;;;;1.80;0.90;;;;;;;25.91;28.64;100900.38;106443;1252;74824;-87
2023/05/21 16:16:37;;;;;;;3.30;1.50;;;;;;;25.91;28.47;100899.91;106505;1254;60800;-82
2023/05/21 16:19:25;;;;;;;3.50;1.40;;;;;;;25.92;28.43;100901.83;106367;1253;64882;-87
2023/05/21 16:22:13;;;;;;;3.10;1.30;;;;;;;25.85;28.62;100901.20;106411;1254;60418;-87
2023/05/21 16:25:02;;;;;;;5.80;1.30;;;;;;;25.75;28.71;100901.02;106377;1252;60377;-81
2023/05/21 16:27:50;;;;;;;5.60;1.40;;;;;;;25.66;29.08;100898.93;106600;1256;66216;-87
2023/05/21 16:30:38;;;;;;;3.40;1.60;;;;;;;25.48;29.29;100904.34;106345;1253;70323;-86
2023/05/21 16:33:27;;;;;;;1.90;1.50;;;;;;;25.44;29.13;100900.83;106369;1254;73243;-86
2023/05/21 16:36:15;;;;;;;5.70;1.80;;;;;;;25.38;29.23;100901.73;106417;1256;60469;-82
2023/05/21 16:39:05;;;;;;;1.70;1.20;;;;;;;25.33;29.63;100900.85;106447;1254;61232;-87
2023/05/21 16:41:58;;;;;;;3.90;1.40;;;;;;;25.25;29.75;100902.63;106462;1254;74623;-82
2023/05/21 16:44:46;;;;;;;3.60;1.70;;;;;;;25.22;29.75;100902.32;106402;1254;68631;-87
2023/05/21 16:47:34;;;;;;;2.10;1.40;;;;;;;25.17;30.53;100904.20;106304;1258;72663;-82
2023/05/21 16:50:22;;;;;;;3.90;1.50;;;;;;;25.11;31.16;100908.69;106344;1254;63109;-88
2023/05/21 16:53:10;;;;;;;3.10;1.80;;;;;;;25.04;31.67;100917.17;106208;1254;61521;-87
2023/05/21 16:55:58;;;;;;;2.90;1.70;;;;;;;25.00;31.79;100917.87;106371;1254;75004;-81
2023/05/21 16:58:46;;;;;;;5.40;1.90;;;;;;;24.95;31.95;100913.54;106434;1254;70200;-82
2023/05/21 17:01:34;;;;;;;5.60;1.80;;;;;;;24.91;32.06;100920.02;106265;1258;72921;-88
2023/05/21 17:04:22;;;;;;;7.30;2.20;;;;;;;24.81;31.89;100922.26;106199;1259;60492;-81
2023/05/21 17:07:11;;;;;;;4.30;2.10;;;;;;;24.72;32.13;100926.12;106388;1256;60335;-81
2023/05/21 17:09:59;;;;;;;5.10;1.80;;;;;;;24.62;32.40;100921.50;106261;1254;74798;-82
2023/05/21 17:12:47;;;;;;;5.00;2.30;;;;;;;24.58;32.24;100918.23;106406;1256;68723;-82
2023/05/21 17:15:35;;;;;;;2.50;2.00;;;;;;;24.57;32.49;100920.74;106391;1257;73693;-81
2023/05/21 17:18:24;;;;;;;10.30;2.40;;;;;;;24.48;32.45;100927.58;106385;1254;60539;-81
2023/05/21 17:21:13;;;;;;;5.50;2.40;;;;;;;24.40;32.55;100927.18;106444;1257;61546;-81
2023/05/21 17:24:02;;;;;;;3.80;1.80;;;;;;;24.33;32.85;100927.88;106406;1254;75294;-81
2023/05/21 17:26:51;;;;;;;5.70;1.90;;;;;;;24.28;32.90;100927.43;106368;1256;68831;-81
2023/05/21 17:29:41;;;;;;;5.50;2.30;;;;;;;24.19;33.17;100922.84;106369;1254;73629;-87
2023/05/21 17:32:29;;;;;;;3.40;2.20;;;;;;;24.11;33.62;100924.14;106605;1257;61557;-87
2023/05/21 17:35:17;;;;;;;4.40;1.50;;;;;;;24.06;34.06;100928.34;106529;1257;61395;-81
2023/05/21 17:38:05;;;;;;;3.90;2.20;;;;;;;23.95;33.65;100936.05;106446;1254;74792;-82
2023/05/21 17:40:55;;;;;;;7.50;2.40;;;;;;;23.93;33.72;100936.29;106418;1254;69829;-88
2023/05/21 17:43:43;;;;;;;3.50;1.80;;;;;;;23.85;34.14;100934.33;106283;1254;71571;-81
2023/05/21 17:46:32;;;;;;;2.30;1.90;;;;;;;23.79;34.34;100936.00;106343;1254;60625;-87
2023/05/21 17:49:20;;;;;;;5.60;1.80;;;;;;;23.69;34.88;100938.74;106442;1255;62029;-82
2023/05/21 17:52:08;;;;;;;4.40;2.20;;;;;;;23.58;35.10;100942.16;106460;1257;75028;-87
2023/05/21 17:54:56;;;;;;;7.20;2.40;;;;;;;23.39;35.64;100946.47;106684;1255;69930;-82
2023/05/21 17:57:45;;;;;;;5.00;2.00;;;;;;;23.26;35.92;100950.72;106490;1254;73850;-93
2023/05/21 18:00:32;;;;;;;5.10;2.70;;;;;;;23.16;36.18;100946.23;106209;1259;61258;-86
2023/05/21 18:03:21;;;;;;;4.10;2.10;;;;;;;23.08;36.20;100947.75;106560;1255;60379;-81
2023/05/21 18:06:08;;;;;;;5.60;2.30;;;;;;;23.11;36.35;100951.90;106425;1256;75948;-81
2023/05/21 18:08:57;;;;;;;6.70;2.10;;;;;;;23.10;36.31;100946.20;106413;1254;70078;-86
2023/05/21 18:11:45;;;;;;;4.00;1.90;;;;;;;22.98;36.90;100952.43;106518;1254;73668;-81
2023/05/21 18:14:34;;;;;;;3.90;2.50;;;;;;;22.80;37.28;100953.94;106309;1257;61471;-81
2023/05/21 18:17:22;;;;;;;5.20;2.30;;;;;;;22.67;37.65;100952.98;106409;1253;61368;-81
2023/05/21 18:20:11;;;;;;;3.90;2.40;;;;;;;22.65;37.60;100950.91;106428;1254;75047;-81
2023/05/21 18:22:59;;;;;;;2.70;2.00;;;;;;;22.62;38.02;100958.09;106455;1252;69690;-86
2023/05/21 18:25:47;;;;;;;6.30;2.30;;;;;;;22.58;38.33;100961.20;106330;1254;73296;-85
2023/05/21 18:28:35;;;;;;;2.60;1.80;;;;;;;22.58;38.38;100963.27;106363;1257;61667;-80
2023/05/21 18:31:23;;;;;;;6.20;1.70;;;;;;;22.61;38.42;100965.91;106463;1256;61146;-85
2023/05/21 18:34:11;;;;;;;5.30;1.90;;;;;;;22.52;38.69;100972.71;106709;1257;73542;-80
2023/05/21 18:37:00;;;;;;;3.90;2.10;;;;;;;22.48;38.84;100974.10;106572;1255;69674;-80
2023/05/21 18:39:48;;;;;;;3.70;1.60;;;;;;;22.32;39.18;100972.92;106508;1256;73307;-80
2023/05/21 18:42:37;;;;;;;2.20;1.60;;;;;;;22.32;39.46;100967.68;106564;1256;60535;-80
2023/05/21 18:45:25;;;;;;;4.70;2.00;;;;;;;22.27;39.65;100966.96;106325;1254;61293;-80
2023/05/21 18:48:13;;;;;;;3.20;1.60;;;;;;;22.24;40.13;100969.70;106444;1255;75089;-79
2023/05/21 18:51:01;;;;;;;2.70;1.70;;;;;;;22.20;40.42;100965.05;106522;1256;69865;-79
2023/05/21 18:53:49;;;;;;;3.90;1.80;;;;;;;22.17;40.58;100964.04;106393;1254;73696;-79
2023/05/21 18:56:37;;;;;;;3.10;1.70;;;;;;;22.07;40.92;100964.16;106444;1256;61274;-79
2023/05/21 18:59:27;;;;;;;4.30;2.20;;;;;;;22.05;41.18;100962.20;106484;1252;60927;-79
2023/05/21 19:02:15;;;;;;;2.30;1.60;;;;;;;22.04;41.40;100966.39;106365;1254;73934;-79
2023/05/21 19:05:03;;;;;;;2.90;1.70;;;;;;;21.98;41.58;100968.39;106454;1256;68646;-79
2023/05/21 19:07:52;;;;;;;4.00;1.80;;;;;;;21.89;41.92;100965.93;106502;1257;73856;-80
2023/05/21 19:10:40;;;;;;;5.40;1.90;;;;;;;21.82;42.22;100968.64;106531;1256;61340;-80
2023/05/21 19:13:30;;;;;;;6.00;1.90;;;;;;;21.80;42.52;100967.76;106273;1255;61603;-79
2023/05/21 19:16:18;;;;;;;4.40;2.20;;;;;;;21.87;42.70;100967.16;106381;1253;76169;-80
2023/05/21 19:19:06;;;;;;;4.80;2.10;;;;;;;21.86;42.88;100964.40;106391;1254;69728;-79
2023/05/21 19:21:54;;;;;;;2.20;1.80;;;;;;;21.88;42.75;100962.67;106496;1257;74046;-79
2023/05/21 19:24:44;;;;;;;5.40;1.80;;;;;;;21.92;43.03;100960.23;106367;1256;60511;-80
